Wetterstation Vordersexau
Wetterdaten: Woche 25.02.13 - 03.03.13 (KW9)
Datum Zeit Temp. A. Feuchte A. Luftdruck Regen Wind Richtung Taupunkt Windchill Windben
25.02.2013 00:00 -5,1 C 86 % 1013,2 hPa 0,0 l/m 0,0 km/h S -7,1 C -5,1 C 0,0 km/h
25.02.2013 01:00 -6,1 C 86 % 1013,6 hPa 0,0 l/m 0,0 km/h SO -8,0 C -6,1 C 0,0 km/h
25.02.2013 02:00 -6,8 C 86 % 1013,6 hPa 0,0 l/m 0,0 km/h S -8,7 C -6,8 C 0,0 km/h
25.02.2013 03:00 -6,7 C 86 % 1013,8 hPa 0,0 l/m 2,6 km/h S-SO -8,6 C -6,7 C 1,4 km/h
25.02.2013 04:00 -7,8 C 86 % 1014,0 hPa 0,0 l/m 0,0 km/h S-SW -9,7 C -7,8 C 0,0 km/h
25.02.2013 05:00 -7,1 C 86 % 1014,7 hPa 0,0 l/m 0,0 km/h S -9,0 C -7,1 C 0,0 km/h
25.02.2013 06:00 -7,3 C 86 % 1014,9 hPa 0,0 l/m 0,0 km/h S-SO -9,2 C -7,3 C 0,0 km/h
25.02.2013 07:00 -8,4 C 86 % 1015,3 hPa 0,0 l/m 0,0 km/h S -10,3 C -8,4 C 0,0 km/h
25.02.2013 08:00 -7,5 C 86 % 1015,7 hPa 0,0 l/m 0,0 km/h S-SO -9,4 C -7,5 C 0,0 km/h
25.02.2013 09:00 -3,7 C 82 % 1016,0 hPa 0,0 l/m 0,0 km/h S-SW -6,3 C -3,7 C 0,0 km/h
25.02.2013 10:00 -0,4 C 79 % 1016,1 hPa 0,0 l/m 0,0 km/h N -3,6 C -0,4 C 0,0 km/h
25.02.2013 11:00 4,9 C 63 % 1016,2 hPa 0,0 l/m 0,0 km/h NW -1,5 C 4,9 C 0,0 km/h
25.02.2013 12:00 2,3 C 64 % 1016,4 hPa 0,0 l/m 0,6 km/h NW -3,8 C 2,3 C 0,4 km/h
25.02.2013 13:00 1,8 C 65 % 1016,4 hPa 0,0 l/m 0,0 km/h N-NW -4,1 C 1,8 C 0,0 km/h
25.02.2013 14:00 1,8 C 65 % 1016,6 hPa 0,0 l/m 0,0 km/h S-SW -4,1 C 1,8 C 0,0 km/h
25.02.2013 15:00 2,1 C 65 % 1016,4 hPa 0,0 l/m 0,0 km/h S-SW -3,8 C 2,1 C 0,0 km/h
25.02.2013 16:00 1,3 C 67 % 1016,9 hPa 0,0 l/m 0,0 km/h S-SW -4,1 C 1,3 C 0,0 km/h
25.02.2013 17:00 0,8 C 70 % 1017,1 hPa 0,0 l/m 0,0 km/h S-SW -4,0 C 0,8 C 0,0 km/h
25.02.2013 18:00 -0,1 C 73 % 1017,6 hPa 0,0 l/m 0,0 km/h S-SW -4,3 C -0,1 C 0,0 km/h
25.02.2013 19:00 -0,7 C 76 % 1018,3 hPa 0,0 l/m 0,0 km/h O-SO -4,4 C -0,7 C 0,0 km/h
25.02.2013 20:00 -1,6 C 78 % 1018,7 hPa 0,0 l/m 0,0 km/h SO -4,9 C -1,6 C 0,0 km/h
25.02.2013 21:00 -2,2 C 81 % 1019,4 hPa 0,0 l/m 0,0 km/h O-SO -5,0 C -2,2 C 0,0 km/h
25.02.2013 22:00 -3,3 C 83 % 1019,7 hPa 0,0 l/m 0,0 km/h SO -5,8 C -3,3 C 0,0 km/h
25.02.2013 23:00 -3,6 C 84 % 1019,8 hPa 0,0 l/m 0,0 km/h S-SO -5,9 C -3,6 C 0,0 km/h
26.02.2013 00:00 -4,6 C 85 % 1020,1 hPa 0,0 l/m 0,0 km/h S-SO -6,7 C -4,6 C 0,0 km/h
26.02.2013 01:00 -4,9 C 85 % 1020,5 hPa 0,0 l/m 1,3 km/h S -7,0 C -4,9 C 0,7 km/h
26.02.2013 02:00 -4,4 C 85 % 1020,8 hPa 0,0 l/m 0,0 km/h SO -6,5 C -4,4 C 0,0 km/h
26.02.2013 03:00 -6,1 C 86 % 1021,0 hPa 0,0 l/m 0,0 km/h O-SO -8,0 C -6,1 C 0,0 km/h
26.02.2013 04:00 -6,7 C 86 % 1021,3 hPa 0,0 l/m 0,0 km/h O-SO -8,6 C -6,7 C 0,0 km/h
26.02.2013 05:00 -6,7 C 86 % 1021,7 hPa 0,0 l/m 0,0 km/h S-SO -8,6 C -6,7 C 0,0 km/h
26.02.2013 06:00 -6,9 C 86 % 1021,9 hPa 0,0 l/m 0,0 km/h O -8,8 C -6,9 C 0,0 km/h
26.02.2013 07:00 -7,1 C 86 % 1022,3 hPa 0,0 l/m 0,0 km/h NW -9,0 C -7,1 C 0,0 km/h
26.02.2013 08:00 -5,5 C 86 % 1023,1 hPa 0,0 l/m 0,0 km/h NW -7,5 C -5,5 C 0,0 km/h
26.02.2013 09:00 -2,9 C 86 % 1023,6 hPa 0,0 l/m 1,3 km/h N -4,9 C -2,9 C 0,7 km/h
26.02.2013 10:00 -0,4 C 86 % 1023,5 hPa 0,0 l/m 0,0 km/h W-NW -2,4 C -0,4 C 0,0 km/h
26.02.2013 11:00 1,9 C 80 % 1023,4 hPa 0,0 l/m 0,0 km/h N -1,2 C 1,9 C 0,0 km/h
26.02.2013 12:00 2,3 C 79 % 1023,4 hPa 0,0 l/m 0,0 km/h W -1,0 C 2,3 C 0,0 km/h
26.02.2013 13:00 4,7 C 74 % 1023,1 hPa 0,0 l/m 0,0 km/h W-NW 0,5 C 4,7 C 0,0 km/h
26.02.2013 14:00 3,3 C 77 % 1022,5 hPa 0,0 l/m 0,0 km/h N-NO -0,3 C 3,3 C 0,0 km/h
26.02.2013 15:00 5,5 C 71 % 1022,6 hPa 0,0 l/m 0,0 km/h NO 0,7 C 5,5 C 0,0 km/h
26.02.2013 16:00 3,3 C 77 % 1022,4 hPa 0,0 l/m 0,0 km/h O -0,3 C 3,3 C 0,0 km/h
26.02.2013 17:00 2,6 C 79 % 1022,5 hPa 0,0 l/m 0,0 km/h NW -0,7 C 2,6 C 0,0 km/h
26.02.2013 18:00 1,0 C 84 % 1022,9 hPa 0,0 l/m 0,0 km/h N -1,4 C 1,0 C 0,0 km/h
26.02.2013 19:00 0,4 C 85 % 1023,1 hPa 0,0 l/m 0,0 km/h N -1,8 C 0,4 C 0,0 km/h
26.02.2013 20:00 0,1 C 86 % 1023,6 hPa 0,0 l/m 0,0 km/h W-NW -2,0 C 0,1 C 0,0 km/h
26.02.2013 21:00 0,1 C 86 % 1023,7 hPa 0,0 l/m 0,0 km/h W-NW -2,0 C 0,1 C 0,0 km/h
26.02.2013 22:00 -0,1 C 86 % 1023,6 hPa 0,0 l/m 0,0 km/h W-NW -2,2 C -0,1 C 0,0 km/h
26.02.2013 23:00 0,1 C 86 % 1023,8 hPa 0,0 l/m 0,0 km/h W-NW -2,0 C 0,1 C 0,0 km/h
27.02.2013 00:00 0,2 C 85 % 1023,7 hPa 0,0 l/m 0,0 km/h W-NW -2,0 C 0,2 C 0,0 km/h
27.02.2013 01:00 0,3 C 85 % 1024,1 hPa 0,0 l/m 0,0 km/h W-NW -1,9 C 0,3 C 0,0 km/h
27.02.2013 02:00 0,2 C 85 % 1024,3 hPa 0,0 l/m 0,0 km/h W-NW -2,0 C 0,2 C 0,0 km/h
27.02.2013 03:00 0,3 C 85 % 1024,0 hPa 0,0 l/m 0,0 km/h W-NW -1,9 C 0,3 C 0,0 km/h
27.02.2013 04:00 0,1 C 85 % 1023,8 hPa 0,0 l/m 0,0 km/h W-NW -2,1 C 0,1 C 0,0 km/h
27.02.2013 05:00 0,3 C 85 % 1023,7 hPa 0,0 l/m 0,0 km/h W-NW -1,9 C 0,3 C 0,0 km/h
27.02.2013 06:00 0,4 C 84 % 1023,4 hPa 0,0 l/m 0,0 km/h W -2,0 C 0,4 C 0,0 km/h
27.02.2013 07:00 0,5 C 84 % 1023,6 hPa 0,0 l/m 0,0 km/h W -1,9 C 0,5 C 0,0 km/h
27.02.2013 08:00 0,9 C 84 % 1024,0 hPa 0,0 l/m 0,0 km/h SW -1,5 C 0,9 C 0,0 km/h
27.02.2013 09:00 2,1 C 83 % 1024,3 hPa 0,0 l/m 0,0 km/h W -0,5 C 2,1 C 0,0 km/h
27.02.2013 10:00 3,2 C 84 % 1024,3 hPa 0,0 l/m 0,0 km/h W 0,8 C 3,2 C 0,0 km/h
27.02.2013 11:00 4,6 C 85 % 1024,2 hPa 0,0 l/m 0,0 km/h S-SO 2,3 C 4,6 C 0,0 km/h
27.02.2013 12:00 6,1 C 80 % 1024,0 hPa 0,0 l/m 0,0 km/h O-NO 2,9 C 6,1 C 0,0 km/h
27.02.2013 13:00 5,5 C 77 % 1023,6 hPa 0,0 l/m 1,3 km/h O-SO 1,8 C 5,5 C 0,7 km/h
27.02.2013 14:00 5,6 C 77 % 1023,3 hPa 0,0 l/m 0,0 km/h O 1,9 C 5,6 C 0,0 km/h
27.02.2013 15:00 5,8 C 77 % 1023,0 hPa 0,0 l/m 0,0 km/h O-SO 2,1 C 5,8 C 0,0 km/h
27.02.2013 16:00 5,4 C 77 % 1023,0 hPa 0,0 l/m 0,0 km/h SO 1,7 C 5,4 C 0,0 km/h
27.02.2013 17:00 4,3 C 78 % 1023,2 hPa 0,0 l/m 0,0 km/h SO 0,8 C 4,3 C 0,0 km/h
27.02.2013 18:00 3,6 C 80 % 1023,4 hPa 0,0 l/m 0,0 km/h S-SW 0,5 C 3,6 C 0,0 km/h
27.02.2013 19:00 2,9 C 82 % 1023,6 hPa 0,0 l/m 0,0 km/h S 0,1 C 2,9 C 0,0 km/h
27.02.2013 20:00 2,5 C 83 % 1023,8 hPa 0,0 l/m 0,0 km/h O-SO -0,1 C 2,5 C 0,0 km/h
27.02.2013 21:00 2,4 C 84 % 1023,5 hPa 0,0 l/m 0,0 km/h SO -0,0 C 2,4 C 0,0 km/h
27.02.2013 22:00 2,3 C 84 % 1023,8 hPa 0,0 l/m 0,0 km/h O-SO -0,1 C 2,3 C 0,0 km/h
27.02.2013 23:00 2,1 C 85 % 1023,4 hPa 0,0 l/m 0,0 km/h O -0,2 C 2,1 C 0,0 km/h
28.02.2013 00:00 1,9 C 85 % 1023,2 hPa 0,0 l/m 0,0 km/h O -0,3 C 1,9 C 0,0 km/h
28.02.2013 01:00 2,1 C 85 % 1023,0 hPa 0,0 l/m 0,0 km/h N-NO -0,2 C 2,1 C 0,0 km/h
28.02.2013 02:00 1,5 C 85 % 1022,8 hPa 0,0 l/m 0,0 km/h N-NO -0,7 C 1,5 C 0,0 km/h
28.02.2013 03:00 1,5 C 86 % 1022,3 hPa 0,0 l/m 0,0 km/h N -0,6 C 1,5 C 0,0 km/h
28.02.2013 04:00 0,9 C 86 % 1022,0 hPa 0,0 l/m 0,0 km/h N -1,2 C 0,9 C 0,0 km/h
28.02.2013 05:00 0,6 C 86 % 1021,8 hPa 0,0 l/m 0,0 km/h N -1,5 C 0,6 C 0,0 km/h
28.02.2013 06:00 0,5 C 85 % 1021,7 hPa 0,0 l/m 0,0 km/h N -1,7 C 0,5 C 0,0 km/h
28.02.2013 07:00 0,4 C 85 % 1021,8 hPa 0,0 l/m 0,0 km/h N -1,8 C 0,4 C 0,0 km/h
28.02.2013 08:00 0,9 C 85 % 1022,4 hPa 0,0 l/m 0,0 km/h N -1,3 C 0,9 C 0,0 km/h
28.02.2013 09:00 1,6 C 84 % 1022,6 hPa 0,0 l/m 0,0 km/h N -0,8 C 1,6 C 0,0 km/h
28.02.2013 10:00 2,3 C 86 % 1022,5 hPa 0,0 l/m 0,0 km/h N-NW 0,2 C 2,3 C 0,0 km/h
28.02.2013 11:00 3,1 C 85 % 1022,5 hPa 0,0 l/m 0,0 km/h N-NO 0,8 C 3,1 C 0,0 km/h
28.02.2013 12:00 4,1 C 84 % 1022,3 hPa 0,0 l/m 0,0 km/h N 1,6 C 4,1 C 0,0 km/h
28.02.2013 13:00 5,3 C 81 % 1021,7 hPa 0,0 l/m 0,6 km/h N-NO 2,3 C 5,3 C 0,4 km/h
28.02.2013 14:00 6,7 C 77 % 1021,4 hPa 0,0 l/m 0,0 km/h N-NO 3,0 C 6,7 C 0,0 km/h
28.02.2013 15:00 6,5 C 73 % 1021,4 hPa 0,0 l/m 0,6 km/h NO 2,0 C 6,5 C 0,4 km/h
28.02.2013 16:00 6,1 C 72 % 1021,2 hPa 0,0 l/m 0,0 km/h O-NO 1,4 C 6,1 C 0,0 km/h
28.02.2013 17:00 5,2 C 75 % 1021,1 hPa 0,0 l/m 0,0 km/h NO 1,1 C 5,2 C 0,0 km/h
28.02.2013 18:00 3,9 C 78 % 1021,2 hPa 0,0 l/m 0,0 km/h S 0,4 C 3,9 C 0,0 km/h
28.02.2013 19:00 2,6 C 81 % 1021,1 hPa 0,0 l/m 0,0 km/h S -0,3 C 2,6 C 0,0 km/h
28.02.2013 20:00 1,5 C 84 % 1020,9 hPa 0,0 l/m 0,0 km/h S-SO -0,9 C 1,5 C 0,0 km/h
28.02.2013 21:00 0,4 C 85 % 1020,9 hPa 0,0 l/m 0,0 km/h S-SO -1,8 C 0,4 C 0,0 km/h
28.02.2013 22:00 -0,6 C 86 % 1021,1 hPa 0,0 l/m 0,0 km/h SO -2,6 C -0,6 C 0,0 km/h
28.02.2013 23:00 -1,6 C 86 % 1021,1 hPa 0,0 l/m 0,0 km/h SO -3,6 C -1,6 C 0,0 km/h
01.03.2013 00:00 -1,5 C 86 % 1021,0 hPa 0,0 l/m 0,0 km/h S-SO -3,5 C -1,5 C 0,0 km/h
01.03.2013 01:00 -0,5 C 85 % 1020,8 hPa 0,0 l/m 0,0 km/h S -2,7 C -0,5 C 0,0 km/h
01.03.2013 02:00 -0,2 C 84 % 1020,5 hPa 0,0 l/m 0,0 km/h S -2,6 C -0,2 C 0,0 km/h
01.03.2013 03:00 0,0 C 84 % 1019,9 hPa 0,0 l/m 0,0 km/h S -2,4 C 0,0 C 0,0 km/h
01.03.2013 04:00 0,1 C 83 % 1019,6 hPa 0,0 l/m 0,0 km/h S -2,4 C 0,1 C 0,0 km/h
01.03.2013 05:00 0,3 C 84 % 1019,6 hPa 0,0 l/m 0,0 km/h S -2,1 C 0,3 C 0,0 km/h
01.03.2013 06:00 0,4 C 84 % 1019,5 hPa 0,0 l/m 0,0 km/h SO -2,0 C 0,4 C 0,0 km/h
01.03.2013 07:00 0,4 C 84 % 1019,5 hPa 0,0 l/m 0,0 km/h O-SO -2,0 C 0,4 C 0,0 km/h
01.03.2013 08:00 1,1 C 85 % 1019,7 hPa 0,0 l/m 0,0 km/h S-SO -1,1 C 1,1 C 0,0 km/h
01.03.2013 09:00 2,8 C 85 % 1020,0 hPa 0,0 l/m 0,0 km/h O-NO 0,5 C 2,8 C 0,0 km/h
01.03.2013 10:00 3,9 C 79 % 1019,9 hPa 0,0 l/m 0,0 km/h W 0,6 C 3,9 C 0,0 km/h
01.03.2013 11:00 5,1 C 73 % 1019,8 hPa 0,0 l/m 0,0 km/h N 0,7 C 5,1 C 0,0 km/h
01.03.2013 12:00 11,2 C 56 % 1019,5 hPa 0,0 l/m 7,8 km/h O-NO 2,8 C 10,2 C 4,3 km/h
01.03.2013 13:00 10,9 C 57 % 1018,8 hPa 0,0 l/m 0,0 km/h O 2,7 C 10,9 C 0,0 km/h
01.03.2013 14:00 6,9 C 62 % 1018,5 hPa 0,0 l/m 18,8 km/h O-SO 0,1 C -0,3 C 10,4 km/h
01.03.2013 15:00 6,5 C 67 % 1018,5 hPa 0,0 l/m 0,0 km/h O-NO 0,8 C 6,5 C 0,0 km/h
01.03.2013 16:00 5,3 C 69 % 1018,2 hPa 0,0 l/m 0,0 km/h O-SO 0,1 C 5,3 C 0,0 km/h
01.03.2013 17:00 3,8 C 74 % 1018,3 hPa 0,0 l/m 1,9 km/h O -0,4 C 3,8 C 1,1 km/h
01.03.2013 18:00 3,3 C 76 % 1018,8 hPa 0,0 l/m 0,0 km/h O-SO -0,5 C 3,3 C 0,0 km/h
01.03.2013 19:00 2,7 C 77 % 1019,3 hPa 0,0 l/m 1,9 km/h O-SO -0,9 C 2,7 C 1,1 km/h
01.03.2013 20:00 1,4 C 77 % 1019,6 hPa 0,0 l/m 0,0 km/h SO -2,2 C 1,4 C 0,0 km/h
01.03.2013 21:00 -1,4 C 81 % 1019,8 hPa 0,0 l/m 0,0 km/h O-SO -4,2 C -1,4 C 0,0 km/h
01.03.2013 22:00 -1,8 C 84 % 1019,9 hPa 0,0 l/m 0,0 km/h O-SO -4,1 C -1,8 C 0,0 km/h
01.03.2013 23:00 -1,4 C 85 % 1020,1 hPa 0,0 l/m 0,0 km/h O-SO -3,6 C -1,4 C 0,0 km/h
02.03.2013 00:00 -1,7 C 86 % 1019,9 hPa 0,0 l/m 0,0 km/h O-SO -3,7 C -1,7 C 0,0 km/h
02.03.2013 01:00 -0,5 C 86 % 1019,9 hPa 0,0 l/m 0,0 km/h S -2,5 C -0,5 C 0,0 km/h
02.03.2013 02:00 -0,1 C 86 % 1020,0 hPa 0,0 l/m 0,0 km/h S -2,2 C -0,1 C 0,0 km/h
02.03.2013 03:00 0,2 C 86 % 1019,7 hPa 0,0 l/m 0,0 km/h S-SO -1,9 C 0,2 C 0,0 km/h
02.03.2013 04:00 0,4 C 86 % 1019,8 hPa 0,0 l/m 0,0 km/h S-SO -1,7 C 0,4 C 0,0 km/h
02.03.2013 05:00 0,4 C 86 % 1019,9 hPa 0,0 l/m 0,0 km/h S-SO -1,7 C 0,4 C 0,0 km/h
02.03.2013 06:00 0,6 C 86 % 1020,0 hPa 0,0 l/m 0,0 km/h O -1,5 C 0,6 C 0,0 km/h
02.03.2013 07:00 0,8 C 86 % 1020,0 hPa 0,0 l/m 0,0 km/h O -1,3 C 0,8 C 0,0 km/h
02.03.2013 08:00 1,4 C 86 % 1020,5 hPa 0,0 l/m 0,0 km/h N-NW -0,7 C 1,4 C 0,0 km/h
02.03.2013 09:00 2,9 C 84 % 1020,6 hPa 0,0 l/m 0,0 km/h O 0,5 C 2,9 C 0,0 km/h
02.03.2013 10:00 4,4 C 75 % 1020,5 hPa 0,0 l/m 7,8 km/h O 0,4 C 3,1 C 4,3 km/h
02.03.2013 11:00 5,1 C 70 % 1020,3 hPa 0,0 l/m 0,0 km/h O 0,1 C 5,1 C 0,0 km/h
02.03.2013 12:00 5,3 C 68 % 1020,3 hPa 0,0 l/m 0,0 km/h O-SO -0,1 C 5,3 C 0,0 km/h
02.03.2013 13:00 7,3 C 65 % 1020,0 hPa 0,0 l/m 1,9 km/h NO 1,2 C 7,3 C 1,1 km/h
02.03.2013 14:00 7,6 C 61 % 1019,3 hPa 0,0 l/m 0,0 km/h N-NO 0,6 C 7,6 C 0,0 km/h
02.03.2013 15:00 6,1 C 66 % 1019,1 hPa 0,0 l/m 4,5 km/h N-NO 0,2 C 6,1 C 2,5 km/h
02.03.2013 16:00 5,2 C 67 % 1019,0 hPa 0,0 l/m 1,3 km/h N -0,4 C 5,2 C 0,7 km/h
02.03.2013 17:00 3,3 C 72 % 1019,3 hPa 0,0 l/m 6,5 km/h N-NO -1,3 C 3,2 C 3,6 km/h
02.03.2013 18:00 2,4 C 75 % 1019,6 hPa 0,0 l/m 0,0 km/h N-NO -1,6 C 2,4 C 0,0 km/h
02.03.2013 19:00 1,9 C 77 % 1020,1 hPa 0,0 l/m 0,0 km/h N-NO -1,7 C 1,9 C 0,0 km/h
02.03.2013 20:00 1,8 C 78 % 1020,2 hPa 0,0 l/m 0,0 km/h N-NW -1,6 C 1,8 C 0,0 km/h
02.03.2013 21:00 1,4 C 80 % 1020,5 hPa 0,0 l/m 0,0 km/h NW -1,7 C 1,4 C 0,0 km/h
02.03.2013 22:00 1,2 C 81 % 1020,6 hPa 0,0 l/m 0,0 km/h W-NW -1,7 C 1,2 C 0,0 km/h
02.03.2013 23:00 1,1 C 82 % 1020,3 hPa 0,0 l/m 0,0 km/h NW -1,6 C 1,1 C 0,0 km/h
03.03.2013 00:00 0,9 C 82 % 1019,8 hPa 0,0 l/m 0,0 km/h W -1,8 C 0,9 C 0,0 km/h
03.03.2013 01:00 0,9 C 83 % 1020,2 hPa 0,0 l/m 0,0 km/h N-NW -1,7 C 0,9 C 0,0 km/h
03.03.2013 02:00 0,9 C 82 % 1020,2 hPa 0,0 l/m 0,0 km/h O -1,8 C 0,9 C 0,0 km/h
03.03.2013 03:00 0,9 C 82 % 1019,9 hPa 0,0 l/m 0,0 km/h S-SW -1,8 C 0,9 C 0,0 km/h
03.03.2013 04:00 0,9 C 80 % 1019,8 hPa 0,0 l/m 1,3 km/h S-SO -2,2 C 0,9 C 0,7 km/h
03.03.2013 05:00 0,7 C 79 % 1019,8 hPa 0,0 l/m 0,0 km/h S -2,5 C 0,7 C 0,0 km/h
03.03.2013 06:00 0,2 C 80 % 1020,0 hPa 0,0 l/m 0,0 km/h S-SO -2,8 C 0,2 C 0,0 km/h
03.03.2013 07:00 0,1 C 80 % 1019,9 hPa 0,0 l/m 0,0 km/h S -2,9 C 0,1 C 0,0 km/h
03.03.2013 08:00 0,6 C 79 % 1020,0 hPa 0,0 l/m 1,9 km/h S -2,6 C 0,6 C 1,1 km/h
03.03.2013 09:00 2,1 C 76 % 1020,3 hPa 0,0 l/m 11,0 km/h S -1,7 C -1,9 C 6,1 km/h
03.03.2013 10:00 8,9 C 60 % 1019,8 hPa 0,0 l/m 0,0 km/h O-SO 1,6 C 8,9 C 0,0 km/h
03.03.2013 11:00 10,4 C 52 % 1019,5 hPa 0,0 l/m 0,0 km/h O 1,0 C 10,4 C 0,0 km/h
03.03.2013 12:00 9,9 C 53 % 1019,1 hPa 0,0 l/m 0,0 km/h N 0,8 C 9,9 C 0,0 km/h
03.03.2013 13:00 9,9 C 52 % 1018,4 hPa 0,0 l/m 3,9 km/h N 0,5 C 9,9 C 2,2 km/h
03.03.2013 14:00 10,9 C 53 % 1017,8 hPa 0,0 l/m 1,9 km/h N 1,7 C 10,9 C 1,1 km/h
03.03.2013 15:00 12,6 C 51 % 1017,4 hPa 0,0 l/m 9,7 km/h N-NO 2,7 C 10,6 C 5,4 km/h
03.03.2013 16:00 12,5 C 51 % 1017,1 hPa 0,0 l/m 6,5 km/h N 2,6 C 12,5 C 3,6 km/h
03.03.2013 17:00 10,9 C 54 % 1017,0 hPa 0,0 l/m 0,0 km/h W-NW 2,0 C 10,9 C 0,0 km/h
03.03.2013 18:00 4,6 C 68 % 1017,2 hPa 0,0 l/m 0,0 km/h SO -0,8 C 4,6 C 0,0 km/h
03.03.2013 19:00 1,7 C 78 % 1017,5 hPa 0,0 l/m 0,0 km/h S -1,7 C 1,7 C 0,0 km/h
03.03.2013 20:00 0,2 C 82 % 1017,5 hPa 0,0 l/m 2,6 km/h SO -2,5 C 0,2 C 1,4 km/h
03.03.2013 21:00 -1,1 C 84 % 1017,7 hPa 0,0 l/m 0,0 km/h SO -3,4 C -1,1 C 0,0 km/h
03.03.2013 22:00 -2,2 C 85 % 1017,9 hPa 0,0 l/m 0,0 km/h S-SO -4,4 C -2,2 C 0,0 km/h
03.03.2013 23:00 -2,5 C 85 % 1017,6 hPa 0,0 l/m 0,0 km/h S-SO -4,7 C -2,5 C 0,0 km/h
Min-Datum _ 25.02.13 03.03.13 25.02.13 - 25.02.13 - 25.02.13 25.02.13 25.02.13
_ Min-Zeit 07:19 15:19 00:19 - 00:19 - 07:19 07:19 00:19
Minimum _ -8,4 C 51 % 1013,2 hPa - 0,0 km/h - -10,3 C -8,4 C 0,0 km/h
Max-Datum _ 03.03.13 25.02.13 27.02.13 25.02.13 01.03.13 - 28.02.13 03.03.13 01.03.13
_ Max-Zeit 15:19 00:19 02:19 00:19 14:19 - 14:19 16:19 14:19
Maximum _ 12,6 C 86 % 1024,3 hPa 0,0 l/m 18,8 km/h
O-SO
- 3,0 C 12,5 C 10,4 km/h
O-SO
Durchschnitt _ 1,4 C 79 % 1020,4 hPa #0,0 l/m 0,6 km/h S -2,0 C 1,3 C 0,3 km/h
www.sexauwetter.de